Weather at Mija Stanimirović Barracks Heliport

Public forecast

Using degrees Celsius for public forecast. Weather courtesy of forecast.io.

Closest aviation weather report (METAR) to Mija Stanimirović Barracks Heliport

Closest report is Niš Constantine the Great Airport, 0.9 nm (1.7 km) SSW.

2024/05/21 07:30 (retrieved 29 minutes ago)

LYNI 210730Z 09015KT 9999 BKN043 22/15 Q1013 NOSIG

Closest aviation forecast (TAF) to Mija Stanimirović Barracks Heliport

Closest forecast is Niš Constantine the Great Airport, 0.9 nm (1.7 km) SSW.

2024/05/21 06:21 (retrieved 2 hours ago)

TAF LYNI 210500Z 2106/2206 10014KT 9999 SCT040 TX26/2114Z TN15/2203Z TEMPO 2111/2119 24015G25KT 3000 TSRA SCT030CB SCT040 BECMG 2119/2121 04006KT PROB30 TEMPO 2200/2203 VRB16KT 4000 TSRA SCT010 SCT030CB BKN035